Time;durP1;ratioP1;P1;durP2;ratioP2;P2;SDS_P1;SDS_P2;PMS_P1;PMS_P2;Temp;Humidity;BMP_temperature;BMP_pressure;BME280_temperature;BME280_humidity;BME280_pressure;Samples;Min_cycle;Max_cycle;Signal;HPM_P1;HPM_P2
2023/06/06 00:01:14;;;;;;;;;;;;;;;24.02;42.49;102159.34;5035320;28;19913;-71
2023/06/06 00:03:40;;;;;;;;;;;;;;;24.01;42.51;102160.34;5054361;28;19917;-71
2023/06/06 00:06:06;;;;;;;;;;;;;;;24.00;42.52;102158.69;5032245;28;19923;-70
2023/06/06 00:08:33;;;;;;;;;;;;;;;24.00;42.53;102155.97;5036300;28;20007;-71
2023/06/06 00:10:58;;;;;;;;;;;;;;;23.99;42.50;102164.25;5035071;28;19945;-71
2023/06/06 00:13:27;;;;;;;;;;;;;;;23.98;42.43;102155.25;5047030;28;19920;-71
2023/06/06 00:15:53;;;;;;;;;;;;;;;23.97;42.70;102161.72;5043769;28;19921;-71
2023/06/06 00:18:19;;;;;;;;;;;;;;;23.95;42.66;102161.88;5041632;28;19970;-71
2023/06/06 00:20:45;;;;;;;;;;;;;;;23.96;42.71;102154.59;5052619;28;20397;-71
2023/06/06 00:23:10;;;;;;;;;;;;;;;23.94;42.55;102156.63;5054593;28;19925;-71
2023/06/06 00:25:36;;;;;;;;;;;;;;;23.84;42.53;102136.97;5048699;28;19928;-71
2023/06/06 00:28:01;;;;;;;;;;;;;;;23.92;42.51;102156.81;5050291;28;19967;-71
2023/06/06 00:30:26;;;;;;;;;;;;;;;23.91;42.45;102162.41;5034206;28;19913;-71
2023/06/06 00:32:51;;;;;;;;;;;;;;;23.90;42.34;102161.56;5050447;28;19958;-71
2023/06/06 00:35:16;;;;;;;;;;;;;;;23.83;42.31;102146.97;5051519;28;19917;-71
2023/06/06 00:37:42;;;;;;;;;;;;;;;23.89;42.31;102159.88;5043871;28;20377;-71
2023/06/06 00:40:09;;;;;;;;;;;;;;;23.89;42.41;102156.31;5050225;28;19952;-71
2023/06/06 00:42:34;;;;;;;;;;;;;;;23.88;42.22;102152.75;5056413;28;19949;-70
2023/06/06 00:44:59;;;;;;;;;;;;;;;23.87;42.26;102151.06;5025462;28;19913;-70
2023/06/06 00:47:25;;;;;;;;;;;;;;;23.87;42.52;102151.06;5056389;28;19920;-70
2023/06/06 00:49:50;;;;;;;;;;;;;;;23.87;42.47;102159.19;5050745;28;19936;-70
2023/06/06 00:52:15;;;;;;;;;;;;;;;23.86;42.16;102153.91;5040670;28;19917;-71
2023/06/06 00:54:40;;;;;;;;;;;;;;;23.85;42.01;102155.78;5032919;28;19917;-71
2023/06/06 00:57:07;;;;;;;;;;;;;;;23.84;42.11;102148.66;5044412;28;19923;-71
2023/06/06 00:59:32;;;;;;;;;;;;;;;23.85;41.99;102146.81;5048176;28;19968;-70
2023/06/06 01:01:58;;;;;;;;;;;;;;;23.84;42.06;102147.81;5044161;28;19921;-70
2023/06/06 01:04:24;;;;;;;;;;;;;;;23.82;41.95;102147.97;5035640;28;19914;-70
2023/06/06 01:06:51;;;;;;;;;;;;;;;23.82;41.98;102145.25;5035496;28;19992;-71
2023/06/06 01:09:18;;;;;;;;;;;;;;;23.81;42.17;102140.84;5055978;28;19928;-71
2023/06/06 01:11:59;;;;;;;;;;;;;;;23.81;42.07;102142.72;5026244;28;19924;-71
2023/06/06 01:14:33;;;;;;;;;;;;;;;23.78;42.27;102138.47;5043604;28;19927;-71
2023/06/06 01:16:59;;;;;;;;;;;;;;;23.77;42.16;102135.94;5035067;28;19921;-71
2023/06/06 01:19:27;;;;;;;;;;;;;;;23.74;41.94;102131.69;5054768;28;19916;-71
2023/06/06 01:21:54;;;;;;;;;;;;;;;23.73;41.81;102135.44;5054382;28;19913;-71
2023/06/06 01:24:19;;;;;;;;;;;;;;;23.72;42.04;102138.31;5024796;28;19935;-71
2023/06/06 01:26:45;;;;;;;;;;;;;;;23.71;41.93;102137.47;5051460;28;20346;-71
2023/06/06 01:29:10;;;;;;;;;;;;;;;23.70;41.87;102138.47;5053768;28;19921;-71
2023/06/06 01:31:36;;;;;;;;;;;;;;;23.67;41.97;102136.97;5057842;28;19952;-71
2023/06/06 01:34:05;;;;;;;;;;;;;;;23.66;42.20;102132.56;5046815;28;19981;-71
2023/06/06 01:36:40;;;;;;;;;;;;;;;23.66;42.06;102139.84;5041568;28;19917;-70
2023/06/06 01:39:12;;;;;;;;;;;;;;;23.65;41.88;102132.72;5046214;28;19961;-70
2023/06/06 01:41:37;;;;;;;;;;;;;;;23.64;41.88;102131.84;5040527;28;19914;-70
2023/06/06 01:44:02;;;;;;;;;;;;;;;23.63;41.91;102130.16;5055908;28;19935;-70
2023/06/06 01:46:28;;;;;;;;;;;;;;;23.64;42.09;102131.00;5053078;28;19916;-70
2023/06/06 01:48:53;;;;;;;;;;;;;;;23.63;42.08;102137.44;5048980;28;19936;-70
2023/06/06 01:51:18;;;;;;;;;;;;;;;23.62;42.08;102133.91;5040054;28;19917;-70
2023/06/06 01:53:43;;;;;;;;;;;;;;;23.61;41.73;102139.47;5051066;28;19917;-70
2023/06/06 01:56:13;;;;;;;;;;;;;;;23.61;41.72;102136.75;5053398;28;19917;-70
2023/06/06 01:58:39;;;;;;;;;;;;;;;23.60;41.68;102138.63;5042699;28;19913;-70
2023/06/06 02:01:06;;;;;;;;;;;;;;;23.60;41.66;102135.91;5053345;28;19976;-70
2023/06/06 02:03:31;;;;;;;;;;;;;;;23.59;41.74;102136.94;5059353;28;19917;-70
2023/06/06 02:05:56;;;;;;;;;;;;;;;23.59;41.76;102133.38;5055082;28;19920;-70
2023/06/06 02:08:21;;;;;;;;;;;;;;;23.58;41.87;102132.53;5055398;28;19923;-71
2023/06/06 02:10:46;;;;;;;;;;;;;;;23.58;41.93;102129.81;5057063;28;19967;-71
2023/06/06 02:13:12;;;;;;;;;;;;;;;23.57;41.80;102136.25;5052923;28;20370;-71
2023/06/06 02:15:37;;;;;;;;;;;;;;;23.57;41.66;102135.41;5054232;28;19955;-71
2023/06/06 02:18:03;;;;;;;;;;;;;;;23.57;41.57;102132.69;5052144;28;19992;-71
2023/06/06 02:20:28;;;;;;;;;;;;;;;23.57;41.86;102132.69;5052911;28;19914;-71
2023/06/06 02:22:53;;;;;;;;;;;;;;;23.56;41.78;102131.00;5052521;28;19913;-71
2023/06/06 02:25:19;;;;;;;;;;;;;;;23.54;41.89;102123.03;5054260;28;19913;-71
2023/06/06 02:27:48;;;;;;;;;;;;;;;23.54;41.69;102131.19;5045288;28;19917;-71
2023/06/06 02:30:13;;;;;;;;;;;;;;;23.54;41.63;102124.91;5056289;28;19913;-71
2023/06/06 02:32:39;;;;;;;;;;;;;;;23.53;41.79;102126.75;5055755;28;19919;-71
2023/06/06 02:35:04;;;;;;;;;;;;;;;23.53;41.76;102124.03;5045109;28;19940;-72
2023/06/06 02:37:30;;;;;;;;;;;;;;;23.52;41.43;102124.22;5041602;28;19985;-71
2023/06/06 02:39:55;;;;;;;;;;;;;;;23.52;41.71;102118.78;5034934;28;19913;-71
2023/06/06 02:42:20;;;;;;;;;;;;;;;23.51;41.68;102126.09;5051933;28;19962;-71
2023/06/06 02:44:45;;;;;;;;;;;;;;;23.51;41.77;102119.81;5052867;28;20008;-71
2023/06/06 02:47:11;;;;;;;;;;;;;;;23.50;41.49;102118.97;5049446;28;19959;-70
2023/06/06 02:49:36;;;;;;;;;;;;;;;23.49;41.38;102120.00;5053354;28;20000;-71
2023/06/06 02:52:01;;;;;;;;;;;;;;;23.49;41.52;102119.09;5052578;28;19920;-71
2023/06/06 02:54:26;;;;;;;;;;;;;;;23.48;41.46;102115.56;5033234;28;19921;-71
2023/06/06 02:56:52;;;;;;;;;;;;;;;23.47;41.40;102108.44;5034182;28;19965;-71
2023/06/06 02:59:17;;;;;;;;;;;;;;;23.44;41.67;102112.31;5044763;28;19924;-71
2023/06/06 03:01:44;;;;;;;;;;;;;;;23.44;41.70;102115.03;5053067;28;19913;-70
2023/06/06 03:04:12;;;;;;;;;;;;;;;23.44;41.68;102119.63;5057899;28;19960;-70
2023/06/06 03:06:40;;;;;;;;;;;;;;;23.43;41.69;102126.06;5045352;28;19956;-70
2023/06/06 03:09:06;;;;;;;;;;;;;;;23.42;41.42;102114.38;5053614;28;19917;-71
2023/06/06 03:11:31;;;;;;;;;;;;;;;23.41;41.51;102128.97;5054212;28;19931;-70
2023/06/06 03:13:57;;;;;;;;;;;;;;;23.39;41.53;102122.84;5051174;28;19941;-70
2023/06/06 03:16:25;;;;;;;;;;;;;;;23.38;41.70;102129.31;5033894;28;19913;-71
2023/06/06 03:18:51;;;;;;;;;;;;;;;23.39;41.34;102122.00;5023913;28;19921;-70
2023/06/06 03:21:17;;;;;;;;;;;;;;;23.37;41.49;102124.91;5034164;28;19917;-70
2023/06/06 03:23:42;;;;;;;;;;;;;;;23.37;41.41;102126.75;5054215;28;19949;-70
2023/06/06 03:26:07;;;;;;;;;;;;;;;23.35;41.44;102129.63;5037788;28;19919;-70
2023/06/06 03:28:32;;;;;;;;;;;;;;;23.35;41.57;102126.06;5049814;28;19916;-69
2023/06/06 03:30:58;;;;;;;;;;;;;;;23.34;41.52;102129.81;5058592;28;19913;-71
2023/06/06 03:33:23;;;;;;;;;;;;;;;23.33;41.59;102138.97;5027941;28;20008;-71
2023/06/06 03:35:48;;;;;;;;;;;;;;;23.32;41.49;102131.81;5044002;28;19956;-71
2023/06/06 03:38:13;;;;;;;;;;;;;;;23.31;41.49;102135.56;5038637;28;19913;-70
2023/06/06 03:40:39;;;;;;;;;;;;;;;23.30;41.65;102133.88;5051593;28;19980;-70
2023/06/06 03:43:04;;;;;;;;;;;;;;;23.28;41.36;102136.78;5033634;28;19919;-70
2023/06/06 03:45:29;;;;;;;;;;;;;;;23.27;41.63;102132.34;5031991;28;19987;-70
2023/06/06 03:47:55;;;;;;;;;;;;;;;23.27;41.60;102126.91;5045477;28;19917;-70
2023/06/06 03:50:21;;;;;;;;;;;;;;;23.26;41.42;102138.78;5058086;28;19916;-70
2023/06/06 03:52:46;;;;;;;;;;;;;;;23.26;41.59;102146.09;5035327;28;19923;-71
2023/06/06 03:55:11;;;;;;;;;;;;;;;23.25;41.19;102134.38;5032375;28;19917;-71
2023/06/06 03:57:37;;;;;;;;;;;;;;;23.24;41.67;102137.28;5035185;28;19912;-71
2023/06/06 04:00:10;;;;;;;;;;;;;;;23.22;41.54;102137.41;5055912;28;19912;-71
2023/06/06 04:02:36;;;;;;;;;;;;;;;23.23;41.39;102143.69;5044616;28;19921;-71
2023/06/06 04:05:02;;;;;;;;;;;;;;;23.20;41.48;102137.59;5057948;28;20014;-71
2023/06/06 04:07:28;;;;;;;;;;;;;;;23.20;41.62;102139.47;5044350;28;19913;-71
2023/06/06 04:09:54;;;;;;;;;;;;;;;23.19;41.71;102137.75;5050430;28;19923;-71
2023/06/06 04:12:19;;;;;;;;;;;;;;;23.19;41.25;102143.19;5051966;28;19921;-71
2023/06/06 04:14:44;;;;;;;;;;;;;;;23.18;41.47;102152.34;5050861;28;19917;-71
2023/06/06 04:17:10;;;;;;;;;;;;;;;23.17;41.31;102150.66;5050015;28;19932;-71
2023/06/06 04:19:36;;;;;;;;;;;;;;;23.16;41.52;102152.50;5049706;28;19960;-71
2023/06/06 04:22:02;;;;;;;;;;;;;;;23.15;41.42;102156.25;5051203;28;19917;-71
2023/06/06 04:24:28;;;;;;;;;;;;;;;23.15;41.47;102145.41;5035093;28;19917;-71
2023/06/06 04:26:53;;;;;;;;;;;;;;;23.15;41.46;102147.22;5045659;28;19974;-71
2023/06/06 04:29:18;;;;;;;;;;;;;;;23.14;41.60;102150.97;5052779;28;20385;-71
2023/06/06 04:31:46;;;;;;;;;;;;;;;23.14;41.60;102156.41;5057130;28;19923;-71
2023/06/06 04:34:12;;;;;;;;;;;;;;;23.12;41.58;102144.88;5040515;28;19917;-71
2023/06/06 04:36:40;;;;;;;;;;;;;;;23.11;41.51;102146.75;5044707;28;19917;-71
2023/06/06 04:39:07;;;;;;;;;;;;;;;23.11;41.61;102145.91;5038282;28;19917;-71
2023/06/06 04:41:33;;;;;;;;;;;;;;;23.10;41.24;102145.03;5052624;28;20035;-71
2023/06/06 04:43:59;;;;;;;;;;;;;;;23.10;41.35;102141.47;5051498;28;19920;-71
2023/06/06 04:46:24;;;;;;;;;;;;;;;23.09;41.43;102142.50;5032836;28;19913;-71
2023/06/06 04:48:52;;;;;;;;;;;;;;;23.09;41.20;102150.63;5027762;28;20431;-70
2023/06/06 04:51:17;;;;;;;;;;;;;;;23.08;41.42;102149.78;5043792;28;19976;-70
2023/06/06 04:53:44;;;;;;;;;;;;;;;23.07;41.28;102148.09;5044245;28;19924;-70
2023/06/06 04:56:11;;;;;;;;;;;;;;;23.07;41.56;102141.81;5050107;28;20408;-70
2023/06/06 04:58:36;;;;;;;;;;;;;;;23.06;41.37;102142.81;5056636;28;19921;-70
2023/06/06 05:01:02;;;;;;;;;;;;;;;23.06;41.61;102140.09;5034467;28;20028;-70
2023/06/06 05:03:27;;;;;;;;;;;;;;;23.05;41.40;102138.41;5048724;28;20445;-70
2023/06/06 05:05:53;;;;;;;;;;;;;;;23.05;41.54;102141.13;5036122;28;19920;-70
2023/06/06 05:08:19;;;;;;;;;;;;;;;23.05;41.50;102135.69;5032262;28;19952;-71
2023/06/06 05:10:44;;;;;;;;;;;;;;;23.04;41.58;102143.00;5045327;28;19928;-70
2023/06/06 05:13:09;;;;;;;;;;;;;;;23.03;41.50;102146.72;5020026;28;19921;-70
2023/06/06 05:15:34;;;;;;;;;;;;;;;23.03;41.57;102145.88;5051675;28;19921;-71
2023/06/06 05:17:59;;;;;;;;;;;;;;;23.02;41.49;102150.44;5048872;28;19921;-70
2023/06/06 05:20:25;;;;;;;;;;;;;;;23.02;41.61;102138.75;5051692;28;19920;-71
2023/06/06 05:22:50;;;;;;;;;;;;;;;23.01;41.25;102142.47;5033604;28;20015;-71
2023/06/06 05:25:15;;;;;;;;;;;;;;;23.01;41.53;102142.47;5058514;28;19920;-71
2023/06/06 05:27:40;;;;;;;;;;;;;;;23.01;41.27;102139.75;5041503;28;19920;-71
2023/06/06 05:30:06;;;;;;;;;;;;;;;23.01;41.52;102143.31;5050183;28;19917;-71
2023/06/06 05:32:31;;;;;;;;;;;;;;;23.00;41.40;102138.06;5034024;28;19996;-71
2023/06/06 05:34:56;;;;;;;;;;;;;;;23.00;41.30;102143.50;5048422;28;19917;-70
2023/06/06 05:37:22;;;;;;;;;;;;;;;22.98;41.23;102140.97;5034865;28;19935;-70
2023/06/06 05:39:47;;;;;;;;;;;;;;;22.99;41.42;102144.50;5050250;28;19920;-70
2023/06/06 05:42:12;;;;;;;;;;;;;;;22.98;41.25;102142.78;5038993;28;19917;-70
2023/06/06 05:44:37;;;;;;;;;;;;;;;22.97;41.54;102144.66;5040925;28;19920;-70
2023/06/06 05:47:03;;;;;;;;;;;;;;;22.98;41.48;102140.06;5049504;28;19912;-70
2023/06/06 05:49:29;;;;;;;;;;;;;;;22.97;41.48;102144.66;5026079;28;19913;-70
2023/06/06 05:51:54;;;;;;;;;;;;;;;22.97;41.24;102147.38;5041955;28;19959;-70
2023/06/06 05:54:19;;;;;;;;;;;;;;;22.96;41.37;102145.69;5027716;28;19924;-70
2023/06/06 05:56:44;;;;;;;;;;;;;;;22.95;41.48;102144.00;5048580;28;19920;-70
2023/06/06 05:59:09;;;;;;;;;;;;;;;22.95;41.55;102144.00;5035880;28;19938;-70
2023/06/06 06:01:36;;;;;;;;;;;;;;;22.94;41.37;102143.16;5032957;28;19913;-70
2023/06/06 06:04:01;;;;;;;;;;;;;;;22.94;41.40;102140.44;5048410;28;19955;-70
2023/06/06 06:06:26;;;;;;;;;;;;;;;22.93;41.58;102141.44;5054580;28;19913;-70
2023/06/06 06:08:52;;;;;;;;;;;;;;;22.93;41.40;102144.13;5053747;28;19961;-70
2023/06/06 06:11:18;;;;;;;;;;;;;;;22.93;41.35;102136.00;5053105;28;19944;-70
2023/06/06 06:13:43;;;;;;;;;;;;;;;22.94;41.43;102142.31;5054374;28;19913;-71
2023/06/06 06:16:09;;;;;;;;;;;;;;;22.94;41.42;102145.00;5056485;28;19952;-70
2023/06/06 06:18:34;;;;;;;;;;;;;;;22.93;41.24;102144.13;5034845;28;19921;-70
2023/06/06 06:20:59;;;;;;;;;;;;;;;22.92;41.25;102147.88;5041172;28;19917;-71
2023/06/06 06:23:25;;;;;;;;;;;;;;;22.93;41.44;102148.72;5054603;28;19947;-70
2023/06/06 06:25:50;;;;;;;;;;;;;;;22.91;41.58;102148.91;5054977;28;19920;-71
2023/06/06 06:28:19;;;;;;;;;;;;;;;22.92;41.15;102149.75;5056320;28;19968;-71
2023/06/06 06:30:45;;;;;;;;;;;;;;;22.92;41.39;102150.59;5046769;28;19917;-71
2023/06/06 06:33:11;;;;;;;;;;;;;;;22.91;41.31;102151.59;5053478;28;20409;-71
2023/06/06 06:35:36;;;;;;;;;;;;;;;22.91;41.31;102148.91;5052051;28;19922;-71
2023/06/06 06:38:01;;;;;;;;;;;;;;;22.93;41.38;102140.56;5051333;28;20431;-71
2023/06/06 06:40:26;;;;;;;;;;;;;;;22.92;41.31;102147.03;5053411;28;19925;-71
2023/06/06 06:42:52;;;;;;;;;;;;;;;22.92;41.20;102144.31;5056834;28;19925;-71
2023/06/06 06:45:19;;;;;;;;;;;;;;;22.92;41.57;102149.75;5029573;28;19917;-71
2023/06/06 06:47:45;;;;;;;;;;;;;;;22.91;41.16;102146.19;5047715;28;19944;-70
2023/06/06 06:50:11;;;;;;;;;;;;;;;22.91;41.25;102145.34;5046303;28;19917;-70
2023/06/06 06:52:37;;;;;;;;;;;;;;;22.91;41.23;102142.63;5053609;28;19924;-71
2023/06/06 06:55:04;;;;;;;;;;;;;;;22.91;41.47;102139.91;5058095;28;19921;-70
2023/06/06 06:57:29;;;;;;;;;;;;;;;22.90;41.26;102141.78;5041838;28;19967;-70
2023/06/06 06:59:56;;;;;;;;;;;;;;;22.90;41.34;102139.06;5033184;28;19913;-70
2023/06/06 07:02:23;;;;;;;;;;;;;;;22.90;41.33;102139.06;5051581;28;19988;-70
2023/06/06 07:04:49;;;;;;;;;;;;;;;22.90;41.45;102146.34;5045669;28;20263;-70
2023/06/06 07:07:15;;;;;;;;;;;;;;;22.90;41.22;102143.66;5034684;28;19920;-70
2023/06/06 07:09:40;;;;;;;;;;;;;;;22.90;41.52;102158.06;5046622;28;19966;-70
2023/06/06 07:12:07;;;;;;;;;;;;;;;22.89;41.48;102140.03;5051602;28;20302;-71
2023/06/06 07:14:32;;;;;;;;;;;;;;;22.89;41.46;102147.31;5055301;28;19928;-71
2023/06/06 07:16:58;;;;;;;;;;;;;;;22.89;41.59;102144.59;5037228;28;19913;-70
2023/06/06 07:19:24;;;;;;;;;;;;;;;22.88;41.60;102148.34;5043535;28;19920;-71
2023/06/06 07:21:49;;;;;;;;;;;;;;;22.88;41.50;102143.75;5057136;28;19913;-70
2023/06/06 07:24:16;;;;;;;;;;;;;;;22.87;41.89;102147.50;5033631;28;19913;-71
2023/06/06 07:26:42;;;;;;;;;;;;;;;22.87;41.77;102141.22;5047624;28;19913;-71
2023/06/06 07:29:07;;;;;;;;;;;;;;;22.87;41.93;102143.94;5053153;28;20369;-70
2023/06/06 07:31:33;;;;;;;;;;;;;;;22.86;41.99;102143.09;5051863;28;19917;-71
2023/06/06 07:33:59;;;;;;;;;;;;;;;22.86;41.93;102139.53;5033017;28;19913;-71
2023/06/06 07:36:25;;;;;;;;;;;;;;;22.86;41.91;102142.25;5022020;28;19913;-71
2023/06/06 07:38:50;;;;;;;;;;;;;;;22.85;41.91;102140.53;5050753;28;19963;-71
2023/06/06 07:41:16;;;;;;;;;;;;;;;22.85;41.88;102135.97;5038462;28;19924;-71
2023/06/06 07:43:41;;;;;;;;;;;;;;;22.85;41.97;102143.22;5057214;28;19921;-71
2023/06/06 07:46:06;;;;;;;;;;;;;;;22.86;42.03;102132.25;5049926;28;19929;-70
2023/06/06 07:48:31;;;;;;;;;;;;;;;22.85;41.90;102135.97;5044323;28;19916;-71
2023/06/06 07:50:56;;;;;;;;;;;;;;;22.85;42.03;102135.97;5043993;28;19917;-71
2023/06/06 07:53:21;;;;;;;;;;;;;;;22.86;41.81;102132.25;5045399;28;19924;-71
2023/06/06 07:55:47;;;;;;;;;;;;;;;22.86;42.02;102128.69;5055356;28;20000;-71
2023/06/06 07:58:13;;;;;;;;;;;;;;;22.86;41.93;102131.41;5053671;28;20000;-71
2023/06/06 08:00:41;;;;;;;;;;;;;;;22.86;41.95;102129.53;5032791;28;20426;-71
2023/06/06 08:03:11;;;;;;;;;;;;;;;22.86;41.90;102125.97;5045111;28;19913;-71
2023/06/06 08:05:36;;;;;;;;;;;;;;;22.86;41.77;102129.53;5040771;28;19912;-71
2023/06/06 08:08:02;;;;;;;;;;;;;;;22.86;42.15;102131.41;5032280;28;19919;-71
2023/06/06 08:10:27;;;;;;;;;;;;;;;22.86;42.00;102131.41;5054890;28;20381;-71
2023/06/06 08:12:53;;;;;;;;;;;;;;;22.85;42.08;102116.13;5050966;28;19917;-71
2023/06/06 08:15:18;;;;;;;;;;;;;;;22.85;42.21;102122.41;5060459;28;19925;-71
2023/06/06 08:17:44;;;;;;;;;;;;;;;22.84;41.97;102131.53;5027743;28;19928;-71
2023/06/06 08:20:10;;;;;;;;;;;;;;;22.84;42.22;102128.84;5050092;28;19920;-71
2023/06/06 08:22:37;;;;;;;;;;;;;;;22.84;42.03;102128.84;5054932;28;19913;-71
2023/06/06 08:25:07;;;;;;;;;;;;;;;22.82;42.19;102122.75;5033109;28;19974;-71
2023/06/06 08:27:32;;;;;;;;;;;;;;;22.82;42.10;102122.75;5050625;28;19955;-71
2023/06/06 08:29:57;;;;;;;;;;;;;;;22.82;42.05;102122.75;5050125;28;19913;-71
2023/06/06 08:32:23;;;;;;;;;;;;;;;22.82;41.95;102122.75;5052191;28;19913;-71
2023/06/06 08:34:48;;;;;;;;;;;;;;;22.83;42.15;102119.00;5049485;28;19921;-71
2023/06/06 08:37:13;;;;;;;;;;;;;;;22.81;42.26;102115.63;5035524;28;19921;-71
2023/06/06 08:39:39;;;;;;;;;;;;;;;22.82;42.37;102111.03;5051300;28;19976;-71
2023/06/06 08:42:06;;;;;;;;;;;;;;;22.82;42.47;102114.59;5059257;28;19927;-71
2023/06/06 08:44:31;;;;;;;;;;;;;;;22.82;42.11;102111.03;5039567;28;19921;-71
2023/06/06 08:46:57;;;;;;;;;;;;;;;22.82;42.19;102111.03;5051422;28;19921;-70
2023/06/06 08:49:23;;;;;;;;;;;;;;;22.82;42.11;102100.19;5038508;28;19966;-70
2023/06/06 08:51:49;;;;;;;;;;;;;;;22.82;42.18;102105.63;5049066;28;19943;-71
2023/06/06 08:54:14;;;;;;;;;;;;;;;22.81;42.42;102104.78;5045916;28;19917;-71
2023/06/06 08:56:43;;;;;;;;;;;;;;;22.82;42.17;102105.63;5051649;28;19969;-71
2023/06/06 08:59:10;;;;;;;;;;;;;;;22.81;42.51;102104.78;5033553;28;19913;-71
2023/06/06 09:01:35;;;;;;;;;;;;;;;22.82;42.13;102097.50;5049340;28;19938;-70
2023/06/06 09:04:00;;;;;;;;;;;;;;;22.82;42.49;102101.03;5035009;28;19948;-71
2023/06/06 09:06:25;;;;;;;;;;;;;;;22.82;42.18;102095.63;5051034;28;19913;-71
2023/06/06 09:08:51;;;;;;;;;;;;;;;22.82;42.61;102103.75;5031397;28;19936;-71
2023/06/06 09:11:16;;;;;;;;;;;;;;;22.83;42.46;102105.44;5027602;28;19928;-71
2023/06/06 09:13:42;;;;;;;;;;;;;;;22.82;42.29;102101.03;5050063;28;20011;-71
2023/06/06 09:16:07;;;;;;;;;;;;;;;22.83;42.42;102096.47;5031885;28;20271;-71
2023/06/06 09:18:32;;;;;;;;;;;;;;;22.82;42.43;102103.75;5040157;28;19925;-71
2023/06/06 09:20:58;;;;;;;;;;;;;;;22.82;42.42;102095.63;5043282;28;19916;-71
2023/06/06 09:23:27;;;;;;;;;;;;;;;22.83;42.34;102096.47;5053294;28;19914;-71
2023/06/06 09:25:52;;;;;;;;;;;;;;;22.83;42.42;102097.31;5052241;28;20007;-71
2023/06/06 09:28:18;;;;;;;;;;;;;;;22.83;42.50;102094.59;5031054;28;20409;-71
2023/06/06 09:30:43;;;;;;;;;;;;;;;22.83;42.49;102086.47;5048923;28;19913;-71
2023/06/06 09:33:08;;;;;;;;;;;;;;;22.84;42.54;102099.00;5051938;28;19912;-71
2023/06/06 09:35:40;;;;;;;;;;;;;;;22.85;42.47;102102.56;5044706;28;19917;-71
2023/06/06 09:38:09;;;;;;;;;;;;;;;22.85;42.52;102095.31;5036985;28;20371;-71
2023/06/06 09:40:42;;;;;;;;;;;;;;;22.85;42.29;102095.31;5045507;28;19913;-70
2023/06/06 09:43:07;;;;;;;;;;;;;;;22.86;42.74;102098.84;5061534;28;19966;-70
2023/06/06 09:45:33;;;;;;;;;;;;;;;22.85;42.50;102089.00;5047291;28;19921;-71
2023/06/06 09:47:58;;;;;;;;;;;;;;;22.85;42.53;102092.59;5052516;28;19924;-70
2023/06/06 09:50:23;;;;;;;;;;;;;;;22.86;42.80;102094.28;5040495;28;19984;-71
2023/06/06 09:52:51;;;;;;;;;;;;;;;22.86;42.76;102093.44;5043578;28;19920;-71
2023/06/06 09:55:17;;;;;;;;;;;;;;;22.86;42.84;102083.44;5054735;28;19921;-71
2023/06/06 09:57:42;;;;;;;;;;;;;;;22.87;42.77;102078.84;5022001;28;19913;-71
2023/06/06 10:00:14;;;;;;;;;;;;;;;22.87;42.91;102081.56;5055281;28;19939;-71
2023/06/06 10:02:45;;;;;;;;;;;;;;;22.88;42.98;102075.13;5043018;28;19921;-71
2023/06/06 10:05:11;;;;;;;;;;;;;;;22.88;43.03;102088.69;5054481;28;19920;-71
2023/06/06 10:07:38;;;;;;;;;;;;;;;22.88;43.04;102084.09;5045418;28;20330;-71
2023/06/06 10:10:03;;;;;;;;;;;;;;;22.89;42.99;102077.66;5049485;28;19919;-71
2023/06/06 10:12:30;;;;;;;;;;;;;;;22.90;42.96;102078.56;5057670;28;19920;-71
2023/06/06 10:14:55;;;;;;;;;;;;;;;22.90;42.81;102079.41;5056283;28;19925;-71
2023/06/06 10:17:21;;;;;;;;;;;;;;;22.91;42.90;102077.53;5024814;28;19925;-71
2023/06/06 10:19:47;;;;;;;;;;;;;;;22.91;42.83;102077.53;5032815;28;19924;-71
2023/06/06 10:22:12;;;;;;;;;;;;;;;22.91;42.86;102070.25;5052409;28;19917;-70
2023/06/06 10:24:37;;;;;;;;;;;;;;;22.93;43.24;102075.50;5053877;28;19981;-70
2023/06/06 10:27:14;;;;;;;;;;;;;;;22.93;42.98;102070.91;5053867;28;19917;-70
2023/06/06 10:29:47;;;;;;;;;;;;;;;22.94;43.16;102066.38;5054417;28;19919;-70
2023/06/06 10:32:17;;;;;;;;;;;;;;;22.93;43.36;102062.78;5039588;28;20012;-71
2023/06/06 10:34:43;;;;;;;;;;;;;;;22.95;43.05;102062.63;5052412;28;19922;-70
2023/06/06 10:37:15;;;;;;;;;;;;;;;22.97;43.20;102066.00;5044660;28;20390;-71
2023/06/06 10:39:41;;;;;;;;;;;;;;;22.97;43.14;102071.44;5040336;28;19919;-71
2023/06/06 10:42:07;;;;;;;;;;;;;;;22.98;43.42;102056.88;5039079;28;19917;-70
2023/06/06 10:44:32;;;;;;;;;;;;;;;23.00;43.07;102064.84;5037353;28;19913;-70
2023/06/06 10:47:16;;;;;;;;;;;;;;;23.01;43.38;102061.09;5051571;28;19963;-71
2023/06/06 10:49:45;;;;;;;;;;;;;;;23.02;43.17;102060.91;5051608;28;19913;-70
2023/06/06 10:52:11;;;;;;;;;;;;;;;23.03;43.11;102057.22;5034308;28;20460;-70
2023/06/06 10:54:36;;;;;;;;;;;;;;;23.04;43.51;102064.31;5035805;28;20067;-70
2023/06/06 10:57:02;;;;;;;;;;;;;;;23.05;43.24;102055.16;5051619;28;19939;-71
2023/06/06 10:59:27;;;;;;;;;;;;;;;23.07;43.53;102061.28;5052941;28;19923;-71
2023/06/06 11:01:53;;;;;;;;;;;;;;;23.09;43.30;102061.09;5035213;28;19917;-70
2023/06/06 11:04:22;;;;;;;;;;;;;;;23.10;43.20;102054.66;5045598;28;19967;-71
2023/06/06 11:06:49;;;;;;;;;;;;;;;23.12;43.31;102048.06;5040467;28;19916;-70
2023/06/06 11:09:18;;;;;;;;;;;;;;;23.14;43.27;102050.59;5052168;28;19917;-70
2023/06/06 11:11:43;;;;;;;;;;;;;;;23.15;43.41;102053.16;5041438;28;20610;-71
2023/06/06 11:14:09;;;;;;;;;;;;;;;23.18;43.58;102051.94;5044230;28;19953;-71
2023/06/06 11:16:37;;;;;;;;;;;;;;;23.19;43.55;102048.22;5046608;28;19917;-71
2023/06/06 11:19:03;;;;;;;;;;;;;;;23.20;43.39;102052.66;5052435;28;19929;-71
2023/06/06 11:21:29;;;;;;;;;;;;;;;23.22;43.42;102050.59;5034514;28;19913;-70
2023/06/06 11:23:54;;;;;;;;;;;;;;;23.24;43.33;102047.72;5040757;28;19917;-70
2023/06/06 11:26:20;;;;;;;;;;;;;;;23.25;43.49;102050.25;5033458;28;19923;-71
2023/06/06 11:28:46;;;;;;;;;;;;;;;23.27;43.68;102048.22;5041931;28;20285;-71
2023/06/06 11:31:11;;;;;;;;;;;;;;;23.30;43.65;102057.91;5056271;28;19916;-71
2023/06/06 11:33:37;;;;;;;;;;;;;;;23.32;43.41;102056.72;5039985;28;20338;-71
2023/06/06 11:36:02;;;;;;;;;;;;;;;23.33;43.38;102054.84;5050352;28;19924;-71
2023/06/06 11:38:27;;;;;;;;;;;;;;;23.35;43.56;102044.66;5044811;28;20475;-71
2023/06/06 11:40:53;;;;;;;;;;;;;;;23.38;43.62;102049.75;5042899;28;19913;-71
2023/06/06 11:43:18;;;;;;;;;;;;;;;23.38;43.64;102042.44;5050374;28;19953;-71
2023/06/06 11:45:43;;;;;;;;;;;;;;;23.41;43.63;102046.69;5054221;28;19937;-71
2023/06/06 11:48:21;;;;;;;;;;;;;;;23.42;43.73;102049.22;5052885;28;19923;-70
2023/06/06 11:50:48;;;;;;;;;;;;;;;23.44;43.62;102046.34;5034019;28;20301;-71
2023/06/06 11:53:22;;;;;;;;;;;;;;;23.47;43.44;102048.72;5032196;28;19913;-70
2023/06/06 11:55:48;;;;;;;;;;;;;;;23.48;43.69;102036.00;5034719;28;19921;-70
2023/06/06 11:58:13;;;;;;;;;;;;;;;23.49;43.55;102035.84;5053383;28;20453;-70
2023/06/06 12:00:39;;;;;;;;;;;;;;;23.51;43.61;102036.50;5038734;28;19919;-70
2023/06/06 12:03:05;;;;;;;;;;;;;;;23.53;43.74;102031.72;5050409;28;19970;-70
2023/06/06 12:05:31;;;;;;;;;;;;;;;23.54;43.72;102038.88;5046532;28;19913;-70
2023/06/06 12:07:59;;;;;;;;;;;;;;;23.56;43.55;102036.81;5053362;28;19920;-70
2023/06/06 12:10:28;;;;;;;;;;;;;;;23.58;43.67;102034.81;5045744;28;20317;-70
2023/06/06 12:12:54;;;;;;;;;;;;;;;23.60;43.74;102032.75;5037919;28;19913;-71
2023/06/06 12:15:19;;;;;;;;;;;;;;;23.61;43.58;102028.16;5050622;28;19936;-70
2023/06/06 12:17:44;;;;;;;;;;;;;;;23.64;43.80;102035.97;5049664;28;19921;-71
2023/06/06 12:20:10;;;;;;;;;;;;;;;23.66;43.63;102025.78;5030822;28;19917;-71
2023/06/06 12:22:35;;;;;;;;;;;;;;;23.68;43.52;102026.50;5034927;28;19981;-71
2023/06/06 12:25:01;;;;;;;;;;;;;;;23.71;43.51;102028.03;5046793;28;20431;-71
2023/06/06 12:27:26;;;;;;;;;;;;;;;23.72;43.56;102032.44;5053287;28;19924;-70
2023/06/06 12:29:54;;;;;;;;;;;;;;;23.73;43.86;102024.09;5051063;28;19959;-71